sensor_id;sensor_type;location;lat;lon;timestamp;P1;durP1;ratioP1;P2;durP2;ratioP2
15132;SDS011;7667;51.232;17.110;2023-09-08T00:00:49;13.87;;;11.67;;
15132;SDS011;7667;51.232;17.110;2023-09-08T00:03:17;13.87;;;10.77;;
15132;SDS011;7667;51.232;17.110;2023-09-08T00:05:44;12.70;;;11.40;;
15132;SDS011;7667;51.232;17.110;2023-09-08T00:08:12;12.10;;;10.43;;
15132;SDS011;7667;51.232;17.110;2023-09-08T00:10:40;12.60;;;11.30;;
15132;SDS011;7667;51.232;17.110;2023-09-08T00:13:07;14.23;;;11.73;;
15132;SDS011;7667;51.232;17.110;2023-09-08T00:15:36;13.20;;;11.73;;
15132;SDS011;7667;51.232;17.110;2023-09-08T00:18:04;13.23;;;11.40;;
15132;SDS011;7667;51.232;17.110;2023-09-08T00:20:32;15.37;;;12.90;;
15132;SDS011;7667;51.232;17.110;2023-09-08T00:23:00;13.90;;;12.03;;
15132;SDS011;7667;51.232;17.110;2023-09-08T00:25:27;13.80;;;12.30;;
15132;SDS011;7667;51.232;17.110;2023-09-08T00:27:55;14.07;;;12.43;;
15132;SDS011;7667;51.232;17.110;2023-09-08T00:30:23;12.93;;;11.37;;
15132;SDS011;7667;51.232;17.110;2023-09-08T00:32:50;14.07;;;11.37;;
15132;SDS011;7667;51.232;17.110;2023-09-08T00:35:18;11.70;;;10.43;;
15132;SDS011;7667;51.232;17.110;2023-09-08T00:37:46;13.53;;;11.17;;
15132;SDS011;7667;51.232;17.110;2023-09-08T00:40:14;11.70;;;10.50;;
15132;SDS011;7667;51.232;17.110;2023-09-08T00:42:41;11.70;;;10.60;;
15132;SDS011;7667;51.232;17.110;2023-09-08T00:45:09;12.37;;;11.07;;
15132;SDS011;7667;51.232;17.110;2023-09-08T00:47:36;12.90;;;11.60;;
15132;SDS011;7667;51.232;17.110;2023-09-08T00:50:04;12.80;;;11.50;;
15132;SDS011;7667;51.232;17.110;2023-09-08T00:52:33;13.10;;;11.80;;
15132;SDS011;7667;51.232;17.110;2023-09-08T00:55:01;15.33;;;13.17;;
15132;SDS011;7667;51.232;17.110;2023-09-08T00:57:28;12.87;;;11.67;;
15132;SDS011;7667;51.232;17.110;2023-09-08T00:59:56;12.90;;;11.53;;
15132;SDS011;7667;51.232;17.110;2023-09-08T01:02:24;13.83;;;12.47;;
15132;SDS011;7667;51.232;17.110;2023-09-08T01:04:52;14.13;;;12.73;;
15132;SDS011;7667;51.232;17.110;2023-09-08T01:07:20;13.13;;;11.60;;
15132;SDS011;7667;51.232;17.110;2023-09-08T01:09:48;13.03;;;11.33;;
15132;SDS011;7667;51.232;17.110;2023-09-08T01:12:17;11.30;;;10.20;;
15132;SDS011;7667;51.232;17.110;2023-09-08T01:14:45;10.63;;;9.63;;
15132;SDS011;7667;51.232;17.110;2023-09-08T01:17:13;10.77;;;9.83;;
15132;SDS011;7667;51.232;17.110;2023-09-08T01:19:41;11.90;;;10.70;;
15132;SDS011;7667;51.232;17.110;2023-09-08T01:22:29;11.00;;;9.90;;
15132;SDS011;7667;51.232;17.110;2023-09-08T01:25:23;11.63;;;10.43;;
15132;SDS011;7667;51.232;17.110;2023-09-08T01:27:53;11.63;;;10.40;;
15132;SDS011;7667;51.232;17.110;2023-09-08T01:30:23;11.93;;;10.73;;
15132;SDS011;7667;51.232;17.110;2023-09-08T01:32:52;12.10;;;10.90;;
15132;SDS011;7667;51.232;17.110;2023-09-08T01:35:21;11.53;;;10.33;;
15132;SDS011;7667;51.232;17.110;2023-09-08T01:37:49;12.23;;;11.03;;
15132;SDS011;7667;51.232;17.110;2023-09-08T01:40:17;11.90;;;10.70;;
15132;SDS011;7667;51.232;17.110;2023-09-08T01:42:48;11.87;;;10.67;;
15132;SDS011;7667;51.232;17.110;2023-09-08T01:45:16;11.87;;;10.70;;
15132;SDS011;7667;51.232;17.110;2023-09-08T01:47:44;12.30;;;11.10;;
15132;SDS011;7667;51.232;17.110;2023-09-08T01:50:12;12.90;;;11.60;;
15132;SDS011;7667;51.232;17.110;2023-09-08T01:52:39;12.13;;;10.93;;
15132;SDS011;7667;51.232;17.110;2023-09-08T01:55:07;13.47;;;12.07;;
15132;SDS011;7667;51.232;17.110;2023-09-08T01:57:35;13.13;;;11.73;;
15132;SDS011;7667;51.232;17.110;2023-09-08T02:00:03;16.27;;;14.57;;
15132;SDS011;7667;51.232;17.110;2023-09-08T02:02:32;14.57;;;13.23;;
15132;SDS011;7667;51.232;17.110;2023-09-08T02:05:00;14.87;;;13.37;;
15132;SDS011;7667;51.232;17.110;2023-09-08T02:07:27;12.80;;;11.27;;
15132;SDS011;7667;51.232;17.110;2023-09-08T02:09:55;13.50;;;12.10;;
15132;SDS011;7667;51.232;17.110;2023-09-08T02:12:23;13.43;;;12.20;;
15132;SDS011;7667;51.232;17.110;2023-09-08T02:14:50;12.07;;;10.87;;
15132;SDS011;7667;51.232;17.110;2023-09-08T02:17:18;11.97;;;10.77;;
15132;SDS011;7667;51.232;17.110;2023-09-08T02:19:46;12.13;;;10.80;;
15132;SDS011;7667;51.232;17.110;2023-09-08T02:22:14;11.67;;;10.47;;
15132;SDS011;7667;51.232;17.110;2023-09-08T02:24:41;13.40;;;11.97;;
15132;SDS011;7667;51.232;17.110;2023-09-08T02:27:09;13.70;;;12.30;;
15132;SDS011;7667;51.232;17.110;2023-09-08T02:29:37;12.50;;;10.90;;
15132;SDS011;7667;51.232;17.110;2023-09-08T02:32:04;13.43;;;12.13;;
15132;SDS011;7667;51.232;17.110;2023-09-08T02:34:35;12.27;;;10.97;;
15132;SDS011;7667;51.232;17.110;2023-09-08T02:37:03;12.13;;;10.93;;
15132;SDS011;7667;51.232;17.110;2023-09-08T02:39:32;12.53;;;11.23;;
15132;SDS011;7667;51.232;17.110;2023-09-08T02:41:59;12.63;;;11.23;;
15132;SDS011;7667;51.232;17.110;2023-09-08T02:44:27;13.13;;;10.97;;
15132;SDS011;7667;51.232;17.110;2023-09-08T02:46:56;11.80;;;10.60;;
15132;SDS011;7667;51.232;17.110;2023-09-08T02:49:23;12.93;;;11.73;;
15132;SDS011;7667;51.232;17.110;2023-09-08T02:51:51;13.10;;;11.73;;
15132;SDS011;7667;51.232;17.110;2023-09-08T02:54:19;12.10;;;10.90;;
15132;SDS011;7667;51.232;17.110;2023-09-08T02:56:46;11.93;;;10.73;;
15132;SDS011;7667;51.232;17.110;2023-09-08T02:59:14;12.00;;;10.90;;
15132;SDS011;7667;51.232;17.110;2023-09-08T03:01:42;12.27;;;11.07;;
15132;SDS011;7667;51.232;17.110;2023-09-08T03:04:09;12.30;;;11.20;;
15132;SDS011;7667;51.232;17.110;2023-09-08T03:06:37;11.90;;;10.70;;
15132;SDS011;7667;51.232;17.110;2023-09-08T03:09:04;12.57;;;11.27;;
15132;SDS011;7667;51.232;17.110;2023-09-08T03:11:32;12.80;;;11.50;;
15132;SDS011;7667;51.232;17.110;2023-09-08T03:14:00;11.93;;;10.77;;
15132;SDS011;7667;51.232;17.110;2023-09-08T03:16:27;13.47;;;11.47;;
15132;SDS011;7667;51.232;17.110;2023-09-08T03:18:55;12.13;;;10.93;;
15132;SDS011;7667;51.232;17.110;2023-09-08T03:21:22;12.17;;;11.00;;
15132;SDS011;7667;51.232;17.110;2023-09-08T03:23:50;12.57;;;11.27;;
15132;SDS011;7667;51.232;17.110;2023-09-08T03:26:18;12.50;;;11.27;;
15132;SDS011;7667;51.232;17.110;2023-09-08T03:28:45;12.90;;;11.63;;
15132;SDS011;7667;51.232;17.110;2023-09-08T03:31:13;13.57;;;12.17;;
15132;SDS011;7667;51.232;17.110;2023-09-08T03:33:40;13.13;;;11.83;;
15132;SDS011;7667;51.232;17.110;2023-09-08T03:36:09;13.07;;;11.77;;
15132;SDS011;7667;51.232;17.110;2023-09-08T03:38:37;14.90;;;13.30;;
15132;SDS011;7667;51.232;17.110;2023-09-08T03:41:05;15.23;;;13.63;;
15132;SDS011;7667;51.232;17.110;2023-09-08T03:43:33;13.60;;;12.20;;
15132;SDS011;7667;51.232;17.110;2023-09-08T03:46:01;13.27;;;11.97;;
15132;SDS011;7667;51.232;17.110;2023-09-08T03:48:29;13.33;;;12.03;;
15132;SDS011;7667;51.232;17.110;2023-09-08T03:50:58;13.47;;;12.07;;
15132;SDS011;7667;51.232;17.110;2023-09-08T03:53:26;14.47;;;12.57;;
15132;SDS011;7667;51.232;17.110;2023-09-08T03:55:54;14.53;;;13.13;;
15132;SDS011;7667;51.232;17.110;2023-09-08T03:58:21;17.30;;;12.47;;
15132;SDS011;7667;51.232;17.110;2023-09-08T04:00:49;15.13;;;12.33;;
15132;SDS011;7667;51.232;17.110;2023-09-08T04:03:16;13.90;;;12.43;;
15132;SDS011;7667;51.232;17.110;2023-09-08T04:05:44;14.40;;;12.93;;
15132;SDS011;7667;51.232;17.110;2023-09-08T04:08:12;16.63;;;13.13;;
15132;SDS011;7667;51.232;17.110;2023-09-08T04:10:39;15.80;;;14.20;;
15132;SDS011;7667;51.232;17.110;2023-09-08T04:13:07;16.67;;;14.30;;
15132;SDS011;7667;51.232;17.110;2023-09-08T04:15:34;15.30;;;13.43;;
15132;SDS011;7667;51.232;17.110;2023-09-08T04:18:02;15.43;;;13.83;;
15132;SDS011;7667;51.232;17.110;2023-09-08T04:20:30;16.50;;;13.93;;
15132;SDS011;7667;51.232;17.110;2023-09-08T04:22:57;14.57;;;13.07;;
15132;SDS011;7667;51.232;17.110;2023-09-08T04:25:25;14.17;;;12.77;;
15132;SDS011;7667;51.232;17.110;2023-09-08T04:27:53;19.33;;;12.83;;
15132;SDS011;7667;51.232;17.110;2023-09-08T04:30:20;28.93;;;21.17;;
15132;SDS011;7667;51.232;17.110;2023-09-08T04:32:48;17.83;;;13.30;;
15132;SDS011;7667;51.232;17.110;2023-09-08T04:35:16;13.93;;;12.30;;
15132;SDS011;7667;51.232;17.110;2023-09-08T04:37:43;13.57;;;12.17;;
15132;SDS011;7667;51.232;17.110;2023-09-08T04:40:11;13.70;;;12.03;;
15132;SDS011;7667;51.232;17.110;2023-09-08T04:42:39;14.07;;;12.47;;
15132;SDS011;7667;51.232;17.110;2023-09-08T04:45:06;14.67;;;12.70;;
15132;SDS011;7667;51.232;17.110;2023-09-08T04:47:34;19.30;;;12.97;;
15132;SDS011;7667;51.232;17.110;2023-09-08T04:50:02;12.83;;;11.23;;
15132;SDS011;7667;51.232;17.110;2023-09-08T04:52:30;15.60;;;11.87;;
15132;SDS011;7667;51.232;17.110;2023-09-08T04:54:58;12.43;;;11.17;;
15132;SDS011;7667;51.232;17.110;2023-09-08T04:57:25;12.93;;;11.43;;
15132;SDS011;7667;51.232;17.110;2023-09-08T04:59:53;13.93;;;11.47;;
15132;SDS011;7667;51.232;17.110;2023-09-08T05:02:21;12.97;;;11.73;;
15132;SDS011;7667;51.232;17.110;2023-09-08T05:04:49;14.00;;;12.60;;
15132;SDS011;7667;51.232;17.110;2023-09-08T05:07:16;13.90;;;12.53;;
15132;SDS011;7667;51.232;17.110;2023-09-08T05:09:46;15.20;;;13.63;;
15132;SDS011;7667;51.232;17.110;2023-09-08T05:12:13;14.97;;;13.47;;
15132;SDS011;7667;51.232;17.110;2023-09-08T05:14:41;13.63;;;12.33;;
15132;SDS011;7667;51.232;17.110;2023-09-08T05:17:08;14.30;;;12.83;;
15132;SDS011;7667;51.232;17.110;2023-09-08T05:19:36;14.03;;;12.60;;
15132;SDS011;7667;51.232;17.110;2023-09-08T05:22:05;16.03;;;12.33;;
15132;SDS011;7667;51.232;17.110;2023-09-08T05:24:35;14.20;;;12.03;;
15132;SDS011;7667;51.232;17.110;2023-09-08T05:27:03;15.37;;;12.63;;
15132;SDS011;7667;51.232;17.110;2023-09-08T05:29:31;13.70;;;12.30;;
15132;SDS011;7667;51.232;17.110;2023-09-08T05:31:59;15.37;;;12.73;;
15132;SDS011;7667;51.232;17.110;2023-09-08T05:34:26;15.43;;;13.30;;
15132;SDS011;7667;51.232;17.110;2023-09-08T05:36:54;14.00;;;12.37;;
15132;SDS011;7667;51.232;17.110;2023-09-08T05:39:21;13.60;;;12.30;;
15132;SDS011;7667;51.232;17.110;2023-09-08T05:41:49;13.67;;;12.10;;
15132;SDS011;7667;51.232;17.110;2023-09-08T05:44:16;14.10;;;12.57;;
15132;SDS011;7667;51.232;17.110;2023-09-08T05:46:44;12.80;;;11.50;;
15132;SDS011;7667;51.232;17.110;2023-09-08T05:49:12;13.10;;;11.67;;
15132;SDS011;7667;51.232;17.110;2023-09-08T05:51:41;12.90;;;11.67;;
15132;SDS011;7667;51.232;17.110;2023-09-08T05:54:08;12.90;;;11.70;;
15132;SDS011;7667;51.232;17.110;2023-09-08T05:56:37;16.87;;;13.00;;
15132;SDS011;7667;51.232;17.110;2023-09-08T05:59:05;13.47;;;12.13;;
15132;SDS011;7667;51.232;17.110;2023-09-08T06:01:32;13.43;;;12.10;;
15132;SDS011;7667;51.232;17.110;2023-09-08T06:04:00;13.37;;;11.57;;
15132;SDS011;7667;51.232;17.110;2023-09-08T06:06:28;13.43;;;11.37;;
15132;SDS011;7667;51.232;17.110;2023-09-08T06:08:56;13.37;;;12.03;;
15132;SDS011;7667;51.232;17.110;2023-09-08T06:11:24;13.07;;;11.77;;
15132;SDS011;7667;51.232;17.110;2023-09-08T06:13:52;12.73;;;11.53;;
15132;SDS011;7667;51.232;17.110;2023-09-08T06:16:22;13.43;;;12.13;;
15132;SDS011;7667;51.232;17.110;2023-09-08T06:18:50;12.93;;;11.73;;
15132;SDS011;7667;51.232;17.110;2023-09-08T06:21:17;12.67;;;11.37;;
15132;SDS011;7667;51.232;17.110;2023-09-08T06:23:46;12.57;;;11.37;;
15132;SDS011;7667;51.232;17.110;2023-09-08T06:26:14;11.73;;;10.53;;
15132;SDS011;7667;51.232;17.110;2023-09-08T06:28:41;11.43;;;10.13;;
15132;SDS011;7667;51.232;17.110;2023-09-08T06:31:11;12.00;;;10.80;;
15132;SDS011;7667;51.232;17.110;2023-09-08T06:33:38;11.87;;;10.77;;
15132;SDS011;7667;51.232;17.110;2023-09-08T06:36:06;11.60;;;9.90;;
15132;SDS011;7667;51.232;17.110;2023-09-08T06:38:34;12.43;;;10.33;;
15132;SDS011;7667;51.232;17.110;2023-09-08T06:41:08;11.57;;;10.43;;
15132;SDS011;7667;51.232;17.110;2023-09-08T06:43:38;13.37;;;10.33;;
15132;SDS011;7667;51.232;17.110;2023-09-08T06:46:05;11.13;;;10.03;;
15132;SDS011;7667;51.232;17.110;2023-09-08T06:48:33;13.10;;;9.97;;
15132;SDS011;7667;51.232;17.110;2023-09-08T06:51:02;10.93;;;9.83;;
15132;SDS011;7667;51.232;17.110;2023-09-08T06:53:30;10.70;;;9.70;;
15132;SDS011;7667;51.232;17.110;2023-09-08T06:55:58;12.70;;;9.70;;
15132;SDS011;7667;51.232;17.110;2023-09-08T06:58:25;14.63;;;10.40;;
15132;SDS011;7667;51.232;17.110;2023-09-08T07:00:53;11.27;;;10.13;;
15132;SDS011;7667;51.232;17.110;2023-09-08T07:03:21;10.60;;;9.50;;
15132;SDS011;7667;51.232;17.110;2023-09-08T07:05:50;10.53;;;9.30;;
15132;SDS011;7667;51.232;17.110;2023-09-08T07:08:17;10.90;;;9.80;;
15132;SDS011;7667;51.232;17.110;2023-09-08T07:10:51;13.87;;;10.07;;
15132;SDS011;7667;51.232;17.110;2023-09-08T07:13:20;11.57;;;9.83;;
15132;SDS011;7667;51.232;17.110;2023-09-08T07:15:47;11.60;;;10.40;;
15132;SDS011;7667;51.232;17.110;2023-09-08T07:18:15;11.37;;;9.63;;
15132;SDS011;7667;51.232;17.110;2023-09-08T07:20:46;12.47;;;10.00;;
15132;SDS011;7667;51.232;17.110;2023-09-08T07:23:17;10.77;;;9.67;;
15132;SDS011;7667;51.232;17.110;2023-09-08T07:25:46;12.43;;;10.03;;
15132;SDS011;7667;51.232;17.110;2023-09-08T07:28:16;11.47;;;9.77;;
15132;SDS011;7667;51.232;17.110;2023-09-08T07:30:46;12.23;;;10.03;;
15132;SDS011;7667;51.232;17.110;2023-09-08T07:33:13;12.60;;;9.90;;
15132;SDS011;7667;51.232;17.110;2023-09-08T07:35:42;12.17;;;10.00;;
15132;SDS011;7667;51.232;17.110;2023-09-08T07:38:09;11.83;;;10.13;;
15132;SDS011;7667;51.232;17.110;2023-09-08T07:40:37;11.87;;;10.23;;
15132;SDS011;7667;51.232;17.110;2023-09-08T07:43:04;13.10;;;10.23;;
15132;SDS011;7667;51.232;17.110;2023-09-08T07:45:32;12.30;;;9.83;;
15132;SDS011;7667;51.232;17.110;2023-09-08T07:48:00;12.37;;;10.03;;
15132;SDS011;7667;51.232;17.110;2023-09-08T07:50:28;10.47;;;9.03;;
15132;SDS011;7667;51.232;17.110;2023-09-08T07:52:56;11.23;;;9.10;;
15132;SDS011;7667;51.232;17.110;2023-09-08T07:55:24;10.47;;;9.37;;
15132;SDS011;7667;51.232;17.110;2023-09-08T07:57:55;11.53;;;8.80;;
15132;SDS011;7667;51.232;17.110;2023-09-08T08:00:24;13.60;;;8.90;;
15132;SDS011;7667;51.232;17.110;2023-09-08T08:02:54;12.13;;;9.33;;
15132;SDS011;7667;51.232;17.110;2023-09-08T08:05:24;9.85;;;8.43;;
15132;SDS011;7667;51.232;17.110;2023-09-08T08:07:52;11.68;;;9.48;;
15132;SDS011;7667;51.232;17.110;2023-09-08T08:10:20;12.77;;;9.07;;
15132;SDS011;7667;51.232;17.110;2023-09-08T08:12:48;10.43;;;8.52;;
15132;SDS011;7667;51.232;17.110;2023-09-08T08:15:15;11.68;;;8.18;;
15132;SDS011;7667;51.232;17.110;2023-09-08T08:17:43;9.02;;;8.10;;
15132;SDS011;7667;51.232;17.110;2023-09-08T08:20:11;13.35;;;8.30;;
15132;SDS011;7667;51.232;17.110;2023-09-08T08:22:45;10.45;;;8.05;;
15132;SDS011;7667;51.232;17.110;2023-09-08T08:25:13;10.05;;;8.02;;
15132;SDS011;7667;51.232;17.110;2023-09-08T08:27:41;10.98;;;7.63;;
15132;SDS011;7667;51.232;17.110;2023-09-08T08:30:08;9.90;;;8.18;;
15132;SDS011;7667;51.232;17.110;2023-09-08T08:32:38;9.52;;;7.70;;
15132;SDS011;7667;51.232;17.110;2023-09-08T08:35:06;9.90;;;7.60;;
15132;SDS011;7667;51.232;17.110;2023-09-08T08:37:34;9.25;;;7.57;;
15132;SDS011;7667;51.232;17.110;2023-09-08T08:40:01;10.18;;;7.68;;
15132;SDS011;7667;51.232;17.110;2023-09-08T08:42:31;7.93;;;7.13;;
15132;SDS011;7667;51.232;17.110;2023-09-08T08:45:00;10.05;;;7.78;;
15132;SDS011;7667;51.232;17.110;2023-09-08T08:47:27;11.77;;;7.35;;
15132;SDS011;7667;51.232;17.110;2023-09-08T08:49:56;7.38;;;6.20;;
15132;SDS011;7667;51.232;17.110;2023-09-08T08:52:25;9.80;;;6.72;;
15132;SDS011;7667;51.232;17.110;2023-09-08T08:54:54;9.95;;;6.88;;
15132;SDS011;7667;51.232;17.110;2023-09-08T08:57:22;8.57;;;6.18;;
15132;SDS011;7667;51.232;17.110;2023-09-08T08:59:53;7.68;;;6.38;;
15132;SDS011;7667;51.232;17.110;2023-09-08T09:02:21;10.93;;;7.18;;
15132;SDS011;7667;51.232;17.110;2023-09-08T09:04:49;8.80;;;6.28;;
15132;SDS011;7667;51.232;17.110;2023-09-08T09:07:18;9.77;;;7.28;;
15132;SDS011;7667;51.232;17.110;2023-09-08T09:09:47;10.20;;;5.90;;
15132;SDS011;7667;51.232;17.110;2023-09-08T09:12:15;10.88;;;6.82;;
15132;SDS011;7667;51.232;17.110;2023-09-08T09:14:47;9.02;;;5.93;;
15132;SDS011;7667;51.232;17.110;2023-09-08T09:17:15;14.93;;;6.57;;
15132;SDS011;7667;51.232;17.110;2023-09-08T09:19:42;6.55;;;5.68;;
15132;SDS011;7667;51.232;17.110;2023-09-08T09:22:10;8.27;;;6.05;;
15132;SDS011;7667;51.232;17.110;2023-09-08T09:24:38;9.20;;;6.25;;
15132;SDS011;7667;51.232;17.110;2023-09-08T09:27:11;12.60;;;6.70;;
15132;SDS011;7667;51.232;17.110;2023-09-08T09:29:49;8.98;;;6.35;;
15132;SDS011;7667;51.232;17.110;2023-09-08T09:32:22;7.28;;;5.65;;
15132;SDS011;7667;51.232;17.110;2023-09-08T09:34:52;10.00;;;6.00;;
15132;SDS011;7667;51.232;17.110;2023-09-08T09:37:21;9.95;;;6.38;;
15132;SDS011;7667;51.232;17.110;2023-09-08T09:39:49;7.38;;;6.13;;
15132;SDS011;7667;51.232;17.110;2023-09-08T09:42:21;8.52;;;6.05;;
15132;SDS011;7667;51.232;17.110;2023-09-08T09:44:51;9.13;;;6.35;;
15132;SDS011;7667;51.232;17.110;2023-09-08T09:47:19;7.85;;;5.80;;
15132;SDS011;7667;51.232;17.110;2023-09-08T09:49:47;8.35;;;5.60;;
15132;SDS011;7667;51.232;17.110;2023-09-08T09:52:23;8.02;;;5.78;;
15132;SDS011;7667;51.232;17.110;2023-09-08T09:54:53;8.23;;;5.60;;
15132;SDS011;7667;51.232;17.110;2023-09-08T09:57:22;7.70;;;6.03;;
15132;SDS011;7667;51.232;17.110;2023-09-08T09:59:50;9.00;;;6.50;;
15132;SDS011;7667;51.232;17.110;2023-09-08T10:02:20;6.93;;;5.60;;
15132;SDS011;7667;51.232;17.110;2023-09-08T10:04:49;6.15;;;5.30;;
15132;SDS011;7667;51.232;17.110;2023-09-08T10:07:18;6.97;;;6.07;;
15132;SDS011;7667;51.232;17.110;2023-09-08T10:09:46;8.65;;;5.85;;
15132;SDS011;7667;51.232;17.110;2023-09-08T10:12:16;11.27;;;5.57;;
15132;SDS011;7667;51.232;17.110;2023-09-08T10:14:46;7.38;;;5.78;;
15132;SDS011;7667;51.232;17.110;2023-09-08T10:17:18;9.60;;;5.85;;
15132;SDS011;7667;51.232;17.110;2023-09-08T10:19:55;7.22;;;5.88;;
15132;SDS011;7667;51.232;17.110;2023-09-08T10:22:29;6.20;;;5.43;;
15132;SDS011;7667;51.232;17.110;2023-09-08T10:24:57;7.75;;;5.55;;
15132;SDS011;7667;51.232;17.110;2023-09-08T10:27:33;9.43;;;5.72;;
15132;SDS011;7667;51.232;17.110;2023-09-08T10:30:03;8.95;;;5.65;;
15132;SDS011;7667;51.232;17.110;2023-09-08T10:32:33;8.45;;;5.82;;
15132;SDS011;7667;51.232;17.110;2023-09-08T10:35:03;6.13;;;5.32;;
15132;SDS011;7667;51.232;17.110;2023-09-08T10:37:32;6.80;;;5.85;;
15132;SDS011;7667;51.232;17.110;2023-09-08T10:43:07;7.57;;;5.80;;
15132;SDS011;7667;51.232;17.110;2023-09-08T10:45:36;6.60;;;5.57;;
15132;SDS011;7667;51.232;17.110;2023-09-08T10:48:04;8.40;;;5.63;;
15132;SDS011;7667;51.232;17.110;2023-09-08T10:50:34;8.10;;;5.55;;
15132;SDS011;7667;51.232;17.110;2023-09-08T10:53:04;7.20;;;5.32;;
15132;SDS011;7667;51.232;17.110;2023-09-08T10:55:42;6.85;;;5.45;;
15132;SDS011;7667;51.232;17.110;2023-09-08T10:58:37;5.82;;;5.05;;
15132;SDS011;7667;51.232;17.110;2023-09-08T11:01:07;7.22;;;5.00;;
15132;SDS011;7667;51.232;17.110;2023-09-08T11:03:53;9.18;;;5.53;;
15132;SDS011;7667;51.232;17.110;2023-09-08T11:06:21;7.88;;;5.38;;
15132;SDS011;7667;51.232;17.110;2023-09-08T11:08:50;5.85;;;4.70;;
15132;SDS011;7667;51.232;17.110;2023-09-08T11:11:23;7.40;;;5.30;;
15132;SDS011;7667;51.232;17.110;2023-09-08T11:13:51;6.30;;;4.72;;
15132;SDS011;7667;51.232;17.110;2023-09-08T11:16:19;5.75;;;4.47;;
15132;SDS011;7667;51.232;17.110;2023-09-08T11:18:51;5.65;;;5.03;;
15132;SDS011;7667;51.232;17.110;2023-09-08T11:21:19;6.03;;;5.00;;
15132;SDS011;7667;51.232;17.110;2023-09-08T11:23:47;6.80;;;5.28;;
15132;SDS011;7667;51.232;17.110;2023-09-08T11:26:15;5.38;;;4.43;;
15132;SDS011;7667;51.232;17.110;2023-09-08T11:28:43;5.25;;;4.75;;
15132;SDS011;7667;51.232;17.110;2023-09-08T11:31:13;6.22;;;5.15;;
15132;SDS011;7667;51.232;17.110;2023-09-08T11:33:41;8.35;;;5.35;;
15132;SDS011;7667;51.232;17.110;2023-09-08T11:36:13;9.90;;;4.80;;
15132;SDS011;7667;51.232;17.110;2023-09-08T11:38:42;5.72;;;4.70;;
15132;SDS011;7667;51.232;17.110;2023-09-08T11:41:12;5.00;;;3.97;;
15132;SDS011;7667;51.232;17.110;2023-09-08T11:43:40;7.35;;;4.40;;
15132;SDS011;7667;51.232;17.110;2023-09-08T11:46:07;7.45;;;4.60;;
15132;SDS011;7667;51.232;17.110;2023-09-08T11:48:37;5.68;;;4.57;;
15132;SDS011;7667;51.232;17.110;2023-09-08T11:51:08;9.00;;;4.55;;
15132;SDS011;7667;51.232;17.110;2023-09-08T11:53:37;5.97;;;4.35;;
15132;SDS011;7667;51.232;17.110;2023-09-08T11:56:05;7.10;;;4.70;;
15132;SDS011;7667;51.232;17.110;2023-09-08T11:58:33;7.25;;;4.50;;
15132;SDS011;7667;51.232;17.110;2023-09-08T12:01:01;7.72;;;4.70;;
15132;SDS011;7667;51.232;17.110;2023-09-08T12:03:31;4.78;;;3.92;;
15132;SDS011;7667;51.232;17.110;2023-09-08T12:05:58;5.90;;;4.22;;
15132;SDS011;7667;51.232;17.110;2023-09-08T12:08:29;5.20;;;4.13;;
15132;SDS011;7667;51.232;17.110;2023-09-08T12:10:57;5.00;;;3.70;;
15132;SDS011;7667;51.232;17.110;2023-09-08T12:13:25;5.47;;;4.00;;
15132;SDS011;7667;51.232;17.110;2023-09-08T12:15:52;4.50;;;4.10;;
15132;SDS011;7667;51.232;17.110;2023-09-08T12:18:28;5.35;;;3.70;;
15132;SDS011;7667;51.232;17.110;2023-09-08T12:21:07;5.57;;;3.97;;
15132;SDS011;7667;51.232;17.110;2023-09-08T12:23:49;4.40;;;3.90;;
15132;SDS011;7667;51.232;17.110;2023-09-08T12:26:18;4.38;;;3.97;;
15132;SDS011;7667;51.232;17.110;2023-09-08T12:28:46;5.32;;;3.90;;
15132;SDS011;7667;51.232;17.110;2023-09-08T12:31:14;5.55;;;4.00;;
15132;SDS011;7667;51.232;17.110;2023-09-08T12:33:43;3.60;;;3.30;;
15132;SDS011;7667;51.232;17.110;2023-09-08T12:36:18;5.97;;;3.72;;
15132;SDS011;7667;51.232;17.110;2023-09-08T12:38:52;4.97;;;4.03;;
15132;SDS011;7667;51.232;17.110;2023-09-08T12:41:20;5.00;;;3.90;;
15132;SDS011;7667;51.232;17.110;2023-09-08T12:43:48;6.55;;;3.78;;
15132;SDS011;7667;51.232;17.110;2023-09-08T12:46:16;5.25;;;3.83;;
15132;SDS011;7667;51.232;17.110;2023-09-08T12:48:45;4.38;;;3.97;;
15132;SDS011;7667;51.232;17.110;2023-09-08T12:51:13;5.93;;;3.92;;
15132;SDS011;7667;51.232;17.110;2023-09-08T12:53:41;4.35;;;3.95;;
15132;SDS011;7667;51.232;17.110;2023-09-08T12:56:08;4.43;;;4.03;;
15132;SDS011;7667;51.232;17.110;2023-09-08T12:58:36;4.35;;;3.95;;
15132;SDS011;7667;51.232;17.110;2023-09-08T13:01:04;4.28;;;3.67;;
15132;SDS011;7667;51.232;17.110;2023-09-08T13:03:33;7.80;;;4.05;;
15132;SDS011;7667;51.232;17.110;2023-09-08T13:06:01;5.60;;;3.63;;
15132;SDS011;7667;51.232;17.110;2023-09-08T13:08:29;4.63;;;3.85;;
15132;SDS011;7667;51.232;17.110;2023-09-08T13:10:57;4.85;;;3.70;;
15132;SDS011;7667;51.232;17.110;2023-09-08T13:13:24;6.00;;;3.53;;
15132;SDS011;7667;51.232;17.110;2023-09-08T13:15:53;6.88;;;4.47;;
15132;SDS011;7667;51.232;17.110;2023-09-08T13:18:21;4.20;;;3.67;;
15132;SDS011;7667;51.232;17.110;2023-09-08T13:20:48;5.78;;;3.50;;
15132;SDS011;7667;51.232;17.110;2023-09-08T13:23:16;5.18;;;4.10;;
15132;SDS011;7667;51.232;17.110;2023-09-08T13:25:43;3.65;;;3.25;;
15132;SDS011;7667;51.232;17.110;2023-09-08T13:28:11;5.93;;;4.53;;
15132;SDS011;7667;51.232;17.110;2023-09-08T13:30:39;4.10;;;3.70;;
15132;SDS011;7667;51.232;17.110;2023-09-08T13:33:07;4.28;;;3.75;;
15132;SDS011;7667;51.232;17.110;2023-09-08T13:35:34;3.97;;;3.58;;
15132;SDS011;7667;51.232;17.110;2023-09-08T13:38:02;5.75;;;3.92;;
15132;SDS011;7667;51.232;17.110;2023-09-08T13:40:30;5.85;;;3.58;;
15132;SDS011;7667;51.232;17.110;2023-09-08T13:42:57;5.28;;;3.95;;
15132;SDS011;7667;51.232;17.110;2023-09-08T13:45:25;6.07;;;3.85;;
15132;SDS011;7667;51.232;17.110;2023-09-08T13:47:53;5.05;;;3.80;;
15132;SDS011;7667;51.232;17.110;2023-09-08T13:50:22;4.15;;;3.70;;
15132;SDS011;7667;51.232;17.110;2023-09-08T13:52:52;4.22;;;3.75;;
15132;SDS011;7667;51.232;17.110;2023-09-08T13:55:21;5.38;;;3.67;;
15132;SDS011;7667;51.232;17.110;2023-09-08T13:58:03;4.53;;;3.72;;
15132;SDS011;7667;51.232;17.110;2023-09-08T14:00:36;6.38;;;3.63;;
15132;SDS011;7667;51.232;17.110;2023-09-08T14:03:11;4.15;;;3.63;;
15132;SDS011;7667;51.232;17.110;2023-09-08T14:05:41;5.28;;;3.80;;
15132;SDS011;7667;51.232;17.110;2023-09-08T14:08:16;6.40;;;3.92;;
15132;SDS011;7667;51.232;17.110;2023-09-08T14:11:04;4.43;;;4.03;;
15132;SDS011;7667;51.232;17.110;2023-09-08T14:13:41;5.07;;;3.72;;
15132;SDS011;7667;51.232;17.110;2023-09-08T14:16:11;4.70;;;3.90;;
15132;SDS011;7667;51.232;17.110;2023-09-08T14:18:39;4.28;;;3.22;;
15132;SDS011;7667;51.232;17.110;2023-09-08T14:21:07;4.30;;;3.90;;
15132;SDS011;7667;51.232;17.110;2023-09-08T14:23:35;3.92;;;3.53;;
15132;SDS011;7667;51.232;17.110;2023-09-08T14:26:04;3.83;;;3.50;;
15132;SDS011;7667;51.232;17.110;2023-09-08T14:28:32;4.40;;;3.50;;
15132;SDS011;7667;51.232;17.110;2023-09-08T14:31:00;4.13;;;3.72;;
15132;SDS011;7667;51.232;17.110;2023-09-08T14:33:28;4.80;;;3.95;;
15132;SDS011;7667;51.232;17.110;2023-09-08T14:35:55;5.35;;;3.80;;
15132;SDS011;7667;51.232;17.110;2023-09-08T14:38:24;4.75;;;3.83;;
15132;SDS011;7667;51.232;17.110;2023-09-08T14:40:56;4.10;;;3.70;;
15132;SDS011;7667;51.232;17.110;2023-09-08T14:43:27;6.82;;;4.00;;
15132;SDS011;7667;51.232;17.110;2023-09-08T14:45:55;4.30;;;3.90;;